Lorraine L — WDB8580 — position and weather

sailwx.info

Track history (hours):
 
Tides and Currents Weather Stations Pressure Air Temp Water Temp Dewpoint Dewpoint Depression Visibility Wind Speed Wind Dir Waves Ship Positions

Lorraine L

Owner: Highland Towing LLC, Metairie, LA. More information available from US FCC via Universal Licensing System and Coast Guard Vessel Documentation Center.

Last reported at 2016-Dec-06 09:33 UTC. Time now 2016-Dec-06 16:07 UTC.
Position N 29°56' W 093°06'.

Length 19 m; draft 2.4 m.

Type: Towing. MMSI: 366961130.

Date/timePositionNaut miles runAvg speedWind from/ knotsBaromVisibWave heightAir tempDewpointWater temp
2016-Dec-06 09:33N 29°56' W 093°06'4 4.5
2016-Dec-06 08:33N 29°58' W 093°11'5 4.9
2016-Dec-06 07:33N 30°02' W 093°14'4 4.5
2016-Dec-06 06:33N 30°05' W 093°18'3 2.7
2016-Dec-06 05:33N 30°04' W 093°20'3 2.9
2016-Dec-06 04:33N 30°04' W 093°24'4 4.3
2016-Dec-06 03:33N 30°04' W 093°29'5 5.1
2016-Dec-06 02:33N 30°04' W 093°35'3 0.1
2016-Dec-05 03:07N 30°04' W 093°39'3 4.9
2016-Dec-05 02:33N 30°04' W 093°35'4 4.2
2016-Dec-05 01:34N 30°04' W 093°31'4 4.0
2016-Dec-05 00:33N 30°04' W 093°26'3 3.4
2016-Dec-04 23:33N 30°04' W 093°22'4 3.7
2016-Dec-04 22:33N 30°06' W 093°19'1 0.6
2016-Dec-04 21:31N 30°06' W 093°18'0 0.0
2016-Dec-04 20:31N 30°06' W 093°18'0 0.1
2016-Dec-04 19:31N 30°06' W 093°18'0 0.1
2016-Dec-04 18:32N 30°06' W 093°18'1 1.3
2016-Dec-04 17:33N 30°06' W 093°20'5 4.5
2016-Dec-04 16:33N 30°10' W 093°19'0 0.0
2016-Dec-04 15:33N 30°10' W 093°19'0 0.0
2016-Dec-04 14:33N 30°10' W 093°19'0 0.1
2016-Dec-04 13:32N 30°10' W 093°19'0 0.0
2016-Dec-04 12:32N 30°10' W 093°19'0 0.0
2016-Dec-04 11:32N 30°10' W 093°19'0 0.0
2016-Dec-04 10:32N 30°10' W 093°19'0 0.0
2016-Dec-04 09:32N 30°10' W 093°19'0 0.0
2016-Dec-04 08:32N 30°10' W 093°19'0 0.0
2016-Dec-04 07:32N 30°10' W 093°19'0 0.0
2016-Dec-04 06:32N 30°10' W 093°19'0 0.0
2016-Dec-04 05:32N 30°10' W 093°19'0 0.0
2016-Dec-04 04:32N 30°10' W 093°19'0 0.0
2016-Dec-04 03:32N 30°10' W 093°19'0 0.0
2016-Dec-04 02:32N 30°10' W 093°19'0 0.0
2016-Dec-04 01:32N 30°10' W 093°19'0 0.0
2016-Dec-04 00:32N 30°10' W 093°19'0 0.0
2016-Dec-03 23:32N 30°10' W 093°19'0 0.0
2016-Dec-03 22:32N 30°10' W 093°19'0 0.0
2016-Dec-03 21:32N 30°10' W 093°19'0 0.0
2016-Dec-03 20:32N 30°10' W 093°19'0 0.0
2016-Dec-03 19:32N 30°10' W 093°19'0 0.0
2016-Dec-03 18:32N 30°10' W 093°19'0 0.0
2016-Dec-03 17:32N 30°10' W 093°19'0 0.0
2016-Dec-03 16:32N 30°10' W 093°19'0 0.0
2016-Dec-03 15:33N 30°10' W 093°19'0 0.0
2016-Dec-03 14:33N 30°10' W 093°19'0 0.0
2016-Dec-03 13:33N 30°10' W 093°19'0 0.0
2016-Dec-03 12:33N 30°10' W 093°19'0 0.0
2016-Dec-03 11:33N 30°10' W 093°19'0 0.0
2016-Dec-03 10:33N 30°10' W 093°19'0 0.0
2016-Dec-03 09:33N 30°10' W 093°19'0 0.0
2016-Dec-03 08:33N 30°10' W 093°19'0 0.0
2016-Dec-03 07:33N 30°10' W 093°19'0 0.0
2016-Dec-03 06:33N 30°10' W 093°19'0 0.0
2016-Dec-03 05:30N 30°10' W 093°19'0 0.0
2016-Dec-03 04:33N 30°10' W 093°19'1 1.3
2016-Dec-03 03:34N 30°09' W 093°20'3 3.2
2016-Dec-03 02:33N 30°06' W 093°19'0 0.4
2016-Dec-03 01:32N 30°06' W 093°18'0 0.0
2016-Dec-03 00:32N 30°06' W 093°18'0 0.0
2016-Dec-02 23:32N 30°06' W 093°18'0 0.0
2016-Dec-02 22:32N 30°06' W 093°18'0 0.0
2016-Dec-02 21:32N 30°06' W 093°18'0 0.0
2016-Dec-02 20:32N 30°06' W 093°18'0 0.0
2016-Dec-02 19:32N 30°06' W 093°18'0 0.0
2016-Dec-02 18:32N 30°06' W 093°18'0 0.0
2016-Dec-02 17:33N 30°06' W 093°18'0 0.0
2016-Dec-02 16:33N 30°06' W 093°18'0 0.0
2016-Dec-02 15:33N 30°06' W 093°18'0 0.0
2016-Dec-02 14:33N 30°06' W 093°18'0 0.0
2016-Dec-02 13:33N 30°06' W 093°18'0 0.0
2016-Dec-02 12:33N 30°06' W 093°18'0 0.0
2016-Dec-02 11:32N 30°06' W 093°18'0 0.0
2016-Dec-02 10:32N 30°06' W 093°18'0 0.0
2016-Dec-02 09:33N 30°06' W 093°18'0 0.0
2016-Dec-02 08:33N 30°06' W 093°18'0 0.0
2016-Dec-02 07:33N 30°06' W 093°18'0 0.0
2016-Dec-02 06:32N 30°06' W 093°18'0 0.0
2016-Dec-02 05:32N 30°06' W 093°18'0 0.0
2016-Dec-02 04:33N 30°06' W 093°18'0 0.0
2016-Dec-02 03:32N 30°06' W 093°18'0 0.0
2016-Dec-02 02:32N 30°06' W 093°18'0 0.0
2016-Dec-02 01:33N 30°06' W 093°18'0 0.0
2016-Dec-02 00:32N 30°06' W 093°18'0 0.0
2016-Dec-01 23:32N 30°06' W 093°18'0 0.0
2016-Dec-01 22:32N 30°06' W 093°18'0 0.0
2016-Dec-01 21:32N 30°06' W 093°18'0 0.0
2016-Dec-01 20:32N 30°06' W 093°18'0 0.0
2016-Dec-01 19:32N 30°06' W 093°18'0 0.0
2016-Dec-01 18:32N 30°06' W 093°18'0 0.0
2016-Dec-01 17:32N 30°06' W 093°18'0 0.0
2016-Dec-01 16:32N 30°06' W 093°18'0 0.0
2016-Dec-01 15:32N 30°06' W 093°18'0 0.0
2016-Dec-01 14:32N 30°06' W 093°18'0 0.0
2016-Dec-01 13:33N 30°06' W 093°18'0 0.0
2016-Dec-01 12:33N 30°06' W 093°18'0 0.0
2016-Dec-01 11:33N 30°06' W 093°18'0 0.0
2016-Dec-01 10:33N 30°06' W 093°18'0 0.0
2016-Dec-01 09:33N 30°06' W 093°18'0 0.0
2016-Dec-01 08:33N 30°06' W 093°18'0 0.0
2016-Dec-01 07:33N 30°06' W 093°18'0 0.0
2016-Dec-01 06:33N 30°06' W 093°18'0 0.0
2016-Dec-01 05:33N 30°06' W 093°18'0 0.0
2016-Dec-01 04:33N 30°06' W 093°18'0 0.0
2016-Dec-01 03:33N 30°06' W 093°18'0 0.0
2016-Dec-01 02:33N 30°06' W 093°18'0 0.0
2016-Dec-01 01:33N 30°06' W 093°18'0 0.0
2016-Dec-01 00:33N 30°06' W 093°18'0 0.0
2016-Nov-30 23:33N 30°06' W 093°18'0 0.0
2016-Nov-30 22:33N 30°06' W 093°18'0 0.0
2016-Nov-30 21:33N 30°06' W 093°18'0 0.0
2016-Nov-30 20:33N 30°06' W 093°18'0 0.0
2016-Nov-30 19:33N 30°06' W 093°18'0 0.1
2016-Nov-30 18:33N 30°06' W 093°18'0 0.0
2016-Nov-30 17:33N 30°06' W 093°18'0 0.1
2016-Nov-30 16:31N 30°06' W 093°18'0 0.0
2016-Nov-30 15:31N 30°06' W 093°18'0 0.0
2016-Nov-30 14:31N 30°06' W 093°18'0 0.0
2016-Nov-30 13:31N 30°06' W 093°18'0 0.0
2016-Nov-30 12:31N 30°06' W 093°18'0 0.0
2016-Nov-30 11:31N 30°06' W 093°18'0 0.0
2016-Nov-30 10:31N 30°06' W 093°18'0 0.0
2016-Nov-30 09:31N 30°06' W 093°18'0 0.0
2016-Nov-30 08:31N 30°06' W 093°18'0 0.0
2016-Nov-30 07:31N 30°06' W 093°18'0 0.0
2016-Nov-30 06:31N 30°06' W 093°18'0 0.0
2016-Nov-30 05:33N 30°06' W 093°18'0 0.1
2016-Nov-30 04:32N 30°06' W 093°18'0 0.1
2016-Nov-30 03:32N 30°06' W 093°18'0 0.0
2016-Nov-30 02:33N 30°06' W 093°18'3 2.7
2016-Nov-30 01:33N 30°04' W 093°20'3 2.7
2016-Nov-30 00:33N 30°04' W 093°23'5 5.4
2016-Nov-29 23:33N 30°04' W 093°30'5 5.2
2016-Nov-29 22:33N 30°04' W 093°36'  
2016-Nov-26 16:06N 30°04' W 093°34'3 4.8
2016-Nov-26 15:33N 30°04' W 093°31'5 4.9
2016-Nov-26 14:34N 30°04' W 093°25'4 4.1
2016-Nov-26 13:33N 30°05' W 093°20'3 2.6
2016-Nov-26 12:32N 30°05' W 093°17'1 1.1
2016-Nov-26 11:30N 30°04' W 093°16'1 0.7
2016-Nov-26 10:31N 30°04' W 093°16'4 4.3
2016-Nov-26 09:33N 30°00' W 093°14'  
Track history (hours):
 
Tides and Currents Weather Stations Pressure Air Temp Water Temp Dewpoint Dewpoint Depression Visibility Wind Speed Wind Dir Waves Ship Positions

Lorraine L

Owner: Highland Towing LLC, Metairie, LA. More information available from US FCC via Universal Licensing System and Coast Guard Vessel Documentation Center.

Last reported at 2016-Dec-06 09:33 UTC. Time now 2016-Dec-06 16:07 UTC.
Position N 29°56' W 093°06'.

Length 19 m; draft 2.4 m.

Type: Towing. MMSI: 366961130.

Date/timePositionNaut miles runAvg speedWind from/ knotsBaromVisibWave heightAir tempDewpointWater temp
2016-Dec-06 09:33N 29°56' W 093°06'4 4.5
2016-Dec-06 08:33N 29°58' W 093°11'5 4.9
2016-Dec-06 07:33N 30°02' W 093°14'4 4.5
2016-Dec-06 06:33N 30°05' W 093°18'3 2.7
2016-Dec-06 05:33N 30°04' W 093°20'3 2.9
2016-Dec-06 04:33N 30°04' W 093°24'4 4.3
2016-Dec-06 03:33N 30°04' W 093°29'5 5.1
2016-Dec-06 02:33N 30°04' W 093°35'3 0.1
2016-Dec-05 03:07N 30°04' W 093°39'3 4.9
2016-Dec-05 02:33N 30°04' W 093°35'4 4.2
2016-Dec-05 01:34N 30°04' W 093°31'4 4.0
2016-Dec-05 00:33N 30°04' W 093°26'3 3.4
2016-Dec-04 23:33N 30°04' W 093°22'4 3.7
2016-Dec-04 22:33N 30°06' W 093°19'1 0.6
2016-Dec-04 21:31N 30°06' W 093°18'0 0.0
2016-Dec-04 20:31N 30°06' W 093°18'0 0.1
2016-Dec-04 19:31N 30°06' W 093°18'0 0.1
2016-Dec-04 18:32N 30°06' W 093°18'1 1.3
2016-Dec-04 17:33N 30°06' W 093°20'5 4.5
2016-Dec-04 16:33N 30°10' W 093°19'0 0.0
2016-Dec-04 15:33N 30°10' W 093°19'0 0.0
2016-Dec-04 14:33N 30°10' W 093°19'0 0.1
2016-Dec-04 13:32N 30°10' W 093°19'0 0.0
2016-Dec-04 12:32N 30°10' W 093°19'0 0.0
2016-Dec-04 11:32N 30°10' W 093°19'0 0.0
2016-Dec-04 10:32N 30°10' W 093°19'0 0.0
2016-Dec-04 09:32N 30°10' W 093°19'0 0.0
2016-Dec-04 08:32N 30°10' W 093°19'0 0.0
2016-Dec-04 07:32N 30°10' W 093°19'0 0.0
2016-Dec-04 06:32N 30°10' W 093°19'0 0.0
2016-Dec-04 05:32N 30°10' W 093°19'0 0.0
2016-Dec-04 04:32N 30°10' W 093°19'0 0.0
2016-Dec-04 03:32N 30°10' W 093°19'0 0.0
2016-Dec-04 02:32N 30°10' W 093°19'0 0.0
2016-Dec-04 01:32N 30°10' W 093°19'0 0.0
2016-Dec-04 00:32N 30°10' W 093°19'0 0.0
2016-Dec-03 23:32N 30°10' W 093°19'0 0.0
2016-Dec-03 22:32N 30°10' W 093°19'0 0.0
2016-Dec-03 21:32N 30°10' W 093°19'0 0.0
2016-Dec-03 20:32N 30°10' W 093°19'0 0.0
2016-Dec-03 19:32N 30°10' W 093°19'0 0.0
2016-Dec-03 18:32N 30°10' W 093°19'0 0.0
2016-Dec-03 17:32N 30°10' W 093°19'0 0.0
2016-Dec-03 16:32N 30°10' W 093°19'0 0.0
2016-Dec-03 15:33N 30°10' W 093°19'0 0.0
2016-Dec-03 14:33N 30°10' W 093°19'0 0.0
2016-Dec-03 13:33N 30°10' W 093°19'0 0.0
2016-Dec-03 12:33N 30°10' W 093°19'0 0.0
2016-Dec-03 11:33N 30°10' W 093°19'0 0.0
2016-Dec-03 10:33N 30°10' W 093°19'0 0.0
2016-Dec-03 09:33N 30°10' W 093°19'0 0.0
2016-Dec-03 08:33N 30°10' W 093°19'0 0.0
2016-Dec-03 07:33N 30°10' W 093°19'0 0.0
2016-Dec-03 06:33N 30°10' W 093°19'0 0.0
2016-Dec-03 05:30N 30°10' W 093°19'0 0.0
2016-Dec-03 04:33N 30°10' W 093°19'1 1.3
2016-Dec-03 03:34N 30°09' W 093°20'3 3.2
2016-Dec-03 02:33N 30°06' W 093°19'0 0.4
2016-Dec-03 01:32N 30°06' W 093°18'0 0.0
2016-Dec-03 00:32N 30°06' W 093°18'0 0.0
2016-Dec-02 23:32N 30°06' W 093°18'0 0.0
2016-Dec-02 22:32N 30°06' W 093°18'0 0.0
2016-Dec-02 21:32N 30°06' W 093°18'0 0.0
2016-Dec-02 20:32N 30°06' W 093°18'0 0.0
2016-Dec-02 19:32N 30°06' W 093°18'0 0.0
2016-Dec-02 18:32N 30°06' W 093°18'0 0.0
2016-Dec-02 17:33N 30°06' W 093°18'0 0.0
2016-Dec-02 16:33N 30°06' W 093°18'0 0.0
2016-Dec-02 15:33N 30°06' W 093°18'0 0.0
2016-Dec-02 14:33N 30°06' W 093°18'0 0.0
2016-Dec-02 13:33N 30°06' W 093°18'0 0.0
2016-Dec-02 12:33N 30°06' W 093°18'0 0.0
2016-Dec-02 11:32N 30°06' W 093°18'0 0.0
2016-Dec-02 10:32N 30°06' W 093°18'0 0.0
2016-Dec-02 09:33N 30°06' W 093°18'0 0.0
2016-Dec-02 08:33N 30°06' W 093°18'0 0.0
2016-Dec-02 07:33N 30°06' W 093°18'0 0.0
2016-Dec-02 06:32N 30°06' W 093°18'0 0.0
2016-Dec-02 05:32N 30°06' W 093°18'0 0.0
2016-Dec-02 04:33N 30°06' W 093°18'0 0.0
2016-Dec-02 03:32N 30°06' W 093°18'0 0.0
2016-Dec-02 02:32N 30°06' W 093°18'0 0.0
2016-Dec-02 01:33N 30°06' W 093°18'0 0.0
2016-Dec-02 00:32N 30°06' W 093°18'0 0.0
2016-Dec-01 23:32N 30°06' W 093°18'0 0.0
2016-Dec-01 22:32N 30°06' W 093°18'0 0.0
2016-Dec-01 21:32N 30°06' W 093°18'0 0.0
2016-Dec-01 20:32N 30°06' W 093°18'0 0.0
2016-Dec-01 19:32N 30°06' W 093°18'0 0.0
2016-Dec-01 18:32N 30°06' W 093°18'0 0.0
2016-Dec-01 17:32N 30°06' W 093°18'0 0.0
2016-Dec-01 16:32N 30°06' W 093°18'0 0.0
2016-Dec-01 15:32N 30°06' W 093°18'0 0.0
2016-Dec-01 14:32N 30°06' W 093°18'0 0.0
2016-Dec-01 13:33N 30°06' W 093°18'0 0.0
2016-Dec-01 12:33N 30°06' W 093°18'0 0.0
2016-Dec-01 11:33N 30°06' W 093°18'0 0.0
2016-Dec-01 10:33N 30°06' W 093°18'0 0.0
2016-Dec-01 09:33N 30°06' W 093°18'0 0.0
2016-Dec-01 08:33N 30°06' W 093°18'0 0.0
2016-Dec-01 07:33N 30°06' W 093°18'0 0.0
2016-Dec-01 06:33N 30°06' W 093°18'0 0.0
2016-Dec-01 05:33N 30°06' W 093°18'0 0.0
2016-Dec-01 04:33N 30°06' W 093°18'0 0.0
2016-Dec-01 03:33N 30°06' W 093°18'0 0.0
2016-Dec-01 02:33N 30°06' W 093°18'0 0.0
2016-Dec-01 01:33N 30°06' W 093°18'0 0.0
2016-Dec-01 00:33N 30°06' W 093°18'0 0.0
2016-Nov-30 23:33N 30°06' W 093°18'0 0.0
2016-Nov-30 22:33N 30°06' W 093°18'0 0.0
2016-Nov-30 21:33N 30°06' W 093°18'0 0.0
2016-Nov-30 20:33N 30°06' W 093°18'0 0.0
2016-Nov-30 19:33N 30°06' W 093°18'0 0.1
2016-Nov-30 18:33N 30°06' W 093°18'0 0.0
2016-Nov-30 17:33N 30°06' W 093°18'0 0.1
2016-Nov-30 16:31N 30°06' W 093°18'0 0.0
2016-Nov-30 15:31N 30°06' W 093°18'0 0.0
2016-Nov-30 14:31N 30°06' W 093°18'0 0.0
2016-Nov-30 13:31N 30°06' W 093°18'0 0.0
2016-Nov-30 12:31N 30°06' W 093°18'0 0.0
2016-Nov-30 11:31N 30°06' W 093°18'0 0.0
2016-Nov-30 10:31N 30°06' W 093°18'0 0.0
2016-Nov-30 09:31N 30°06' W 093°18'0 0.0
2016-Nov-30 08:31N 30°06' W 093°18'0 0.0
2016-Nov-30 07:31N 30°06' W 093°18'0 0.0
2016-Nov-30 06:31N 30°06' W 093°18'0 0.0
2016-Nov-30 05:33N 30°06' W 093°18'0 0.1
2016-Nov-30 04:32N 30°06' W 093°18'0 0.1
2016-Nov-30 03:32N 30°06' W 093°18'0 0.0
2016-Nov-30 02:33N 30°06' W 093°18'3 2.7
2016-Nov-30 01:33N 30°04' W 093°20'3 2.7
2016-Nov-30 00:33N 30°04' W 093°23'5 5.4
2016-Nov-29 23:33N 30°04' W 093°30'5 5.2
2016-Nov-29 22:33N 30°04' W 093°36'  
2016-Nov-26 16:06N 30°04' W 093°34'3 4.8
2016-Nov-26 15:33N 30°04' W 093°31'5 4.9
2016-Nov-26 14:34N 30°04' W 093°25'4 4.1
2016-Nov-26 13:33N 30°05' W 093°20'3 2.6
2016-Nov-26 12:32N 30°05' W 093°17'1 1.1
2016-Nov-26 11:30N 30°04' W 093°16'1 0.7
2016-Nov-26 10:31N 30°04' W 093°16'4 4.3
2016-Nov-26 09:33N 30°00' W 093°14'  

Dump ship's entire track history